createdAt,value
2023-03-04T00:02:27.843Z,49.70
2023-03-04T00:04:54.602Z,47.92
2023-03-04T00:07:21.340Z,53.17
2023-03-04T00:09:48.141Z,52.85
2023-03-04T00:12:15.243Z,51.80
2023-03-04T00:14:42.130Z,52.35
2023-03-04T00:17:09.164Z,52.08
2023-03-04T00:19:36.275Z,53.72
2023-03-04T00:22:04.639Z,55.05
2023-03-04T00:24:31.715Z,54.63
2023-03-04T00:26:58.594Z,56.70
2023-03-04T00:29:25.349Z,50.80
2023-03-04T00:31:52.105Z,56.58
2023-03-04T00:34:19.031Z,58.42
2023-03-04T00:36:45.724Z,49.03
2023-03-04T00:39:13.480Z,52.45
2023-03-04T00:41:40.490Z,52.72
2023-03-04T00:44:07.552Z,49.17
2023-03-04T00:46:34.408Z,45.90
2023-03-04T00:49:01.096Z,50.80
2023-03-04T00:51:27.750Z,51.10
2023-03-04T00:53:54.605Z,53.42
2023-03-04T00:56:21.333Z,51.75
2023-03-04T00:58:48.041Z,54.92
2023-03-04T01:01:14.746Z,52.42
2023-03-04T01:03:42.409Z,53.90
2023-03-04T01:06:09.352Z,52.97
2023-03-04T01:08:36.199Z,54.95
2023-03-04T01:11:02.942Z,54.60
2023-03-04T01:13:29.777Z,52.60
2023-03-04T01:15:57.621Z,54.63
2023-03-04T01:18:24.985Z,51.60
2023-03-04T01:20:51.800Z,47.42
2023-03-04T01:23:18.519Z,49.88
2023-03-04T01:25:45.233Z,49.30
2023-03-04T01:28:11.982Z,49.67
2023-03-04T01:30:38.830Z,49.83
2023-03-04T01:33:05.606Z,50.38
2023-03-04T01:35:32.485Z,50.08
2023-03-04T01:37:59.206Z,47.55
2023-03-04T01:40:25.985Z,48.67
2023-03-04T01:42:52.809Z,47.40
2023-03-04T01:45:20.838Z,50.83
2023-03-04T01:47:49.178Z,48.40
2023-03-04T01:50:32.893Z,53.60
2023-03-04T01:53:00.432Z,49.35
2023-03-04T01:55:28.674Z,53.15
2023-03-04T01:57:57.319Z,52.20
2023-03-04T02:00:28.007Z,56.38
2023-03-04T02:03:07.218Z,54.92
2023-03-04T02:05:35.757Z,61.70
2023-03-04T02:08:04.742Z,61.33
2023-03-04T02:10:32.330Z,53.92
2023-03-04T02:13:01.011Z,54.38
2023-03-04T02:15:29.544Z,53.20
2023-03-04T02:17:56.400Z,53.08
2023-03-04T02:20:51.170Z,53.50
2023-03-04T02:23:30.482Z,52.08
2023-03-04T02:26:20.722Z,51.63
2023-03-04T02:28:50.909Z,50.40
2023-03-04T02:31:38.035Z,54.17
2023-03-04T02:34:16.794Z,53.65
2023-03-04T02:36:45.069Z,50.47
2023-03-04T02:39:21.553Z,50.75
2023-03-04T02:41:53.624Z,53.13
2023-03-04T02:44:21.590Z,49.40
2023-03-04T02:46:51.286Z,50.00
2023-03-04T02:49:19.186Z,53.70
2023-03-04T02:51:46.444Z,53.55
2023-03-04T02:54:18.569Z,47.75
2023-03-04T02:56:48.916Z,51.42
2023-03-04T02:59:16.679Z,49.60
2023-03-04T03:01:43.522Z,46.40
2023-03-04T03:04:10.552Z,53.42
2023-03-04T03:06:37.359Z,50.22
2023-03-04T03:09:04.181Z,50.25
2023-03-04T03:11:31.408Z,50.45
2023-03-04T03:13:58.143Z,50.17
2023-03-04T03:16:24.947Z,51.33
2023-03-04T03:18:51.963Z,48.22
2023-03-04T03:21:18.836Z,51.45
2023-03-04T03:23:45.590Z,50.53
2023-03-04T03:26:12.277Z,54.17
2023-03-04T03:28:38.959Z,46.95
2023-03-04T03:31:06.039Z,51.10
2023-03-04T03:33:32.765Z,48.22
2023-03-04T03:36:00.462Z,48.83
2023-03-04T03:38:27.845Z,48.38
2023-03-04T03:40:54.504Z,50.42
2023-03-04T03:43:21.206Z,52.30
2023-03-04T03:45:47.933Z,50.78
2023-03-04T03:48:14.705Z,48.63
2023-03-04T03:50:41.520Z,47.22
2023-03-04T03:53:08.197Z,51.33
2023-03-04T03:55:34.869Z,49.17
2023-03-04T03:58:01.654Z,48.35
2023-03-04T04:00:28.322Z,48.40
2023-03-04T04:02:56.685Z,48.05
2023-03-04T04:05:23.402Z,48.47
2023-03-04T04:07:51.383Z,48.08
2023-03-04T04:10:19.320Z,47.97
2023-03-04T04:12:46.084Z,48.05
2023-03-04T04:15:13.723Z,51.83
2023-03-04T04:17:40.478Z,46.83
2023-03-04T04:20:08.542Z,46.95
2023-03-04T04:22:35.195Z,48.45
2023-03-04T04:25:01.902Z,49.58
2023-03-04T04:27:28.600Z,49.85
2023-03-04T04:29:55.252Z,50.78
2023-03-04T04:32:22.021Z,56.80
2023-03-04T04:34:48.731Z,47.85
2023-03-04T04:37:15.407Z,50.85
2023-03-04T04:39:42.098Z,49.58
2023-03-04T04:42:10.959Z,48.65
2023-03-04T04:44:38.960Z,45.10
2023-03-04T04:47:07.382Z,49.13
2023-03-04T04:49:34.239Z,53.13
2023-03-04T04:52:01.353Z,52.20
2023-03-04T04:54:28.052Z,50.63
2023-03-04T04:56:54.958Z,46.55
2023-03-04T04:59:21.726Z,48.38
2023-03-04T05:01:48.503Z,51.58
2023-03-04T05:04:15.345Z,51.30
2023-03-04T05:06:42.222Z,49.88
2023-03-04T05:09:08.981Z,51.80
2023-03-04T05:11:35.658Z,47.75
2023-03-04T05:14:02.324Z,60.33
2023-03-04T05:16:29.066Z,52.25
2023-03-04T05:18:55.736Z,54.28
2023-03-04T05:21:22.416Z,50.70
2023-03-04T05:23:49.165Z,47.22
2023-03-04T05:26:17.533Z,50.60
2023-03-04T05:28:44.625Z,47.20
2023-03-04T05:31:11.492Z,48.88
2023-03-04T05:33:38.374Z,47.90
2023-03-04T05:36:06.630Z,49.88
2023-03-04T05:38:33.352Z,47.05
2023-03-04T05:41:03.210Z,44.55
2023-03-04T05:43:30.583Z,47.47
2023-03-04T05:45:57.579Z,45.42
2023-03-04T05:48:24.322Z,44.08
2023-03-04T05:50:58.819Z,51.40
2023-03-04T05:53:25.963Z,46.15
2023-03-04T05:55:53.320Z,48.72
2023-03-04T05:58:20.685Z,47.72
2023-03-04T06:00:48.104Z,47.47
2023-03-04T06:03:17.709Z,44.90
2023-03-04T06:05:44.709Z,45.95
2023-03-04T06:08:12.723Z,44.63
2023-03-04T06:10:40.872Z,49.03
2023-03-04T06:13:08.242Z,51.45
2023-03-04T06:15:35.249Z,49.60
2023-03-04T06:18:02.186Z,51.88
2023-03-04T06:20:29.033Z,52.55
2023-03-04T06:22:56.098Z,48.35
2023-03-04T06:25:24.227Z,50.55
2023-03-04T06:27:51.144Z,50.90
2023-03-04T06:30:19.226Z,47.08
2023-03-04T06:32:47.452Z,49.38
2023-03-04T06:35:14.982Z,47.40
2023-03-04T06:37:42.235Z,50.25
2023-03-04T06:40:10.044Z,48.13
2023-03-04T06:42:37.342Z,51.70
2023-03-04T06:45:05.020Z,51.85
2023-03-04T06:47:31.689Z,44.00
2023-03-04T06:49:58.631Z,47.60
2023-03-04T06:52:25.351Z,51.58
2023-03-04T06:54:52.059Z,50.30
2023-03-04T06:57:18.724Z,50.88
2023-03-04T06:59:45.471Z,51.25
2023-03-04T07:02:12.693Z,51.78
2023-03-04T07:04:39.672Z,52.53
2023-03-04T07:07:06.582Z,51.95
2023-03-04T07:09:33.288Z,62.72
2023-03-04T07:11:59.990Z,52.55
2023-03-04T07:14:27.820Z,56.08
2023-03-04T07:16:54.723Z,63.10
2023-03-04T07:19:21.568Z,63.53
2023-03-04T07:21:48.320Z,63.53
2023-03-04T07:24:15.076Z,65.93
2023-03-04T07:26:41.845Z,68.72
2023-03-04T07:29:08.648Z,64.78
2023-03-04T07:31:36.123Z,63.92
2023-03-04T07:34:08.205Z,66.80
2023-03-04T07:36:36.554Z,64.65
2023-03-04T07:39:04.563Z,61.85
2023-03-04T07:41:31.488Z,69.70
2023-03-04T07:43:58.974Z,70.80
2023-03-04T07:46:25.873Z,71.72
2023-03-04T07:48:53.045Z,69.13
2023-03-04T07:51:22.980Z,69.28
2023-03-04T07:53:52.988Z,71.60
2023-03-04T07:56:23.604Z,67.28
2023-03-04T07:58:53.623Z,62.35
2023-03-04T08:01:32.834Z,59.78
2023-03-04T08:04:00.307Z,67.13
2023-03-04T08:06:27.672Z,75.53
2023-03-04T08:09:05.816Z,71.38
2023-03-04T08:11:33.628Z,67.05
2023-03-04T08:14:00.697Z,70.00
2023-03-04T08:16:27.658Z,75.13
2023-03-04T08:18:57.786Z,68.07
2023-03-04T08:21:26.180Z,76.28
2023-03-04T08:23:53.597Z,76.45
2023-03-04T08:26:29.584Z,70.03
2023-03-04T08:28:57.273Z,73.90
2023-03-04T08:31:24.631Z,68.80
2023-03-04T08:33:52.653Z,75.60
2023-03-04T08:36:19.896Z,68.68
2023-03-04T08:38:46.766Z,70.05
2023-03-04T08:41:13.894Z,68.18
2023-03-04T08:43:40.751Z,69.65
2023-03-04T08:46:07.706Z,72.72
2023-03-04T08:48:34.747Z,70.88
2023-03-04T08:51:01.520Z,68.95
2023-03-04T08:53:28.219Z,71.60
2023-03-04T08:55:54.970Z,71.00
2023-03-04T08:58:21.839Z,76.22
2023-03-04T09:00:51.404Z,71.70
2023-03-04T09:03:20.495Z,67.30
2023-03-04T09:05:48.435Z,68.07
2023-03-04T09:08:15.763Z,69.97
2023-03-04T09:10:43.112Z,66.80
2023-03-04T09:13:11.458Z,71.05
2023-03-04T09:15:43.487Z,66.30
2023-03-04T09:18:10.223Z,71.40
2023-03-04T09:20:36.977Z,69.50
2023-03-04T09:23:03.792Z,63.95
2023-03-04T09:25:30.651Z,62.65
2023-03-04T09:27:57.446Z,63.92
2023-03-04T09:30:24.350Z,67.10
2023-03-04T09:32:51.389Z,64.25
2023-03-04T09:35:18.209Z,61.05
2023-03-04T09:37:46.784Z,57.95
2023-03-04T09:40:20.788Z,63.10
2023-03-04T09:42:55.729Z,67.88
2023-03-04T09:45:27.343Z,58.78
2023-03-04T09:47:55.509Z,59.92
2023-03-04T09:50:22.480Z,56.17
2023-03-04T09:53:07.865Z,52.83
2023-03-04T09:55:40.489Z,55.42
2023-03-04T09:58:25.254Z,54.72
2023-03-04T10:03:48.962Z,55.92
2023-03-04T10:06:21.274Z,52.72
2023-03-04T10:09:29.130Z,55.38
2023-03-04T10:12:02.821Z,60.13
2023-03-04T10:14:40.218Z,54.55
2023-03-04T10:17:23.831Z,54.00
2023-03-04T10:20:10.229Z,54.55
2023-03-04T10:22:51.805Z,50.58
2023-03-04T10:25:27.948Z,52.10
2023-03-04T10:28:02.855Z,53.67
2023-03-04T10:31:23.076Z,49.65
2023-03-04T10:33:50.106Z,48.00
2023-03-04T10:36:36.395Z,53.05
2023-03-04T10:39:12.996Z,48.35
2023-03-04T10:41:45.415Z,50.53
2023-03-04T10:44:16.503Z,53.55
2023-03-04T10:46:48.389Z,49.10
2023-03-04T10:49:18.693Z,49.33
2023-03-04T10:51:52.227Z,51.25
2023-03-04T10:54:28.015Z,49.55
2023-03-04T10:57:05.351Z,53.45
2023-03-04T10:59:43.552Z,56.33
2023-03-04T11:02:31.809Z,49.97
2023-03-04T11:05:07.439Z,52.67
2023-03-04T11:07:54.424Z,51.53
2023-03-04T11:10:39.548Z,48.45
2023-03-04T11:13:17.761Z,46.80
2023-03-04T11:15:56.268Z,49.20
2023-03-04T11:18:49.558Z,47.25
2023-03-04T11:21:22.236Z,49.00
2023-03-04T11:23:51.501Z,46.53
2023-03-04T11:26:39.333Z,49.45
2023-03-04T11:29:14.856Z,47.42
2023-03-04T11:32:13.694Z,46.97
2023-03-04T11:35:07.972Z,46.60
2023-03-04T11:37:44.011Z,47.03
2023-03-04T11:40:30.407Z,44.45
2023-03-04T11:43:18.702Z,48.30
2023-03-04T11:46:25.946Z,44.88
2023-03-04T11:49:11.495Z,44.67
2023-03-04T11:52:14.231Z,41.30
2023-03-04T11:55:02.576Z,41.15
2023-03-04T11:58:19.095Z,44.08
2023-03-04T12:01:18.027Z,45.38
2023-03-04T12:04:12.551Z,41.42
2023-03-04T12:06:59.392Z,42.72
2023-03-04T12:09:33.985Z,41.55
2023-03-04T12:12:44.041Z,37.75
2023-03-04T12:15:13.562Z,37.20
2023-03-04T12:18:14.096Z,43.90
2023-03-04T12:20:57.693Z,40.08
2023-03-04T12:24:01.943Z,40.17
2023-03-04T12:26:41.324Z,39.45
2023-03-04T12:29:28.028Z,37.08
2023-03-04T12:32:03.902Z,38.22
2023-03-04T12:35:02.767Z,37.78
2023-03-04T12:37:51.298Z,39.88
2023-03-04T12:40:32.479Z,33.58
2023-03-04T12:43:11.209Z,34.38
2023-03-04T12:45:46.216Z,32.10
2023-03-04T12:48:19.009Z,32.90
2023-03-04T12:51:09.913Z,31.38
2023-03-04T12:54:02.853Z,28.55
2023-03-04T12:56:48.787Z,27.70
2023-03-04T12:59:18.516Z,28.10
2023-03-04T13:02:18.515Z,25.73
2023-03-04T13:05:05.294Z,27.67
2023-03-04T13:08:00.775Z,26.80
2023-03-04T13:10:27.668Z,27.45
2023-03-04T13:12:55.993Z,27.55
2023-03-04T13:15:22.880Z,24.33
2023-03-04T13:18:02.221Z,26.73
2023-03-04T13:20:36.644Z,30.92
2023-03-04T13:23:09.441Z,28.23
2023-03-04T13:25:44.258Z,27.55
2023-03-04T13:28:30.982Z,26.65
2023-03-04T13:30:59.658Z,27.90
2023-03-04T13:33:26.248Z,26.30
2023-03-04T13:36:26.564Z,24.27
2023-03-04T13:39:03.285Z,21.60
2023-03-04T13:41:32.809Z,22.52
2023-03-04T13:44:06.817Z,19.80
2023-03-04T13:46:43.066Z,21.25
2023-03-04T13:49:23.612Z,18.90
2023-03-04T13:51:50.879Z,19.73
2023-03-04T13:54:46.801Z,19.05
2023-03-04T13:57:18.050Z,18.58
2023-03-04T13:59:55.602Z,18.58
2023-03-04T14:02:25.960Z,19.55
2023-03-04T14:05:00.850Z,17.15
2023-03-04T14:07:36.731Z,14.95
2023-03-04T14:10:11.226Z,18.58
2023-03-04T14:15:20.654Z,19.92
2023-03-04T14:17:50.599Z,20.48
2023-03-04T14:20:34.122Z,16.45
2023-03-04T14:23:03.078Z,17.60
2023-03-04T14:25:36.677Z,18.90
2023-03-04T14:28:11.144Z,16.98
2023-03-04T14:30:43.401Z,17.38
2023-03-04T14:33:20.887Z,18.38
2023-03-04T14:35:50.108Z,17.52
2023-03-04T14:38:23.411Z,19.60
2023-03-04T14:41:05.626Z,21.38
2023-03-04T14:43:38.178Z,19.27
2023-03-04T14:46:12.251Z,18.50
2023-03-04T14:48:50.267Z,19.88
2023-03-04T14:51:41.750Z,23.95
2023-03-04T14:54:24.972Z,19.27
2023-03-04T14:56:51.598Z,20.33
2023-03-04T14:59:18.249Z,19.73
2023-03-04T15:01:45.977Z,23.23
2023-03-04T15:04:19.344Z,21.40
2023-03-04T15:06:55.500Z,22.92
2023-03-04T15:09:27.424Z,20.92
2023-03-04T15:12:08.281Z,20.92
2023-03-04T15:14:42.507Z,21.02
2023-03-04T15:17:39.174Z,20.80
2023-03-04T15:20:05.940Z,20.52
2023-03-04T15:22:44.827Z,22.17
2023-03-04T15:25:15.580Z,25.15
2023-03-04T15:27:44.059Z,23.65
2023-03-04T15:30:21.458Z,21.65
2023-03-04T15:32:48.259Z,22.65
2023-03-04T15:35:16.487Z,23.58
2023-03-04T15:37:44.412Z,24.60
2023-03-04T15:40:31.744Z,26.50
2023-03-04T15:43:01.433Z,24.60
2023-03-04T15:45:32.587Z,23.63
2023-03-04T15:47:59.283Z,24.08
2023-03-04T15:50:29.131Z,24.23
2023-03-04T15:53:00.145Z,25.48
2023-03-04T15:55:27.097Z,26.85
2023-03-04T15:57:56.523Z,25.45
2023-03-04T16:00:23.666Z,26.50
2023-03-04T16:02:50.574Z,25.10
2023-03-04T16:05:17.544Z,26.20
2023-03-04T16:07:50.582Z,25.88
2023-03-04T16:10:20.941Z,29.02
2023-03-04T16:12:48.077Z,26.80
2023-03-04T16:15:20.887Z,27.65
2023-03-04T16:17:48.068Z,28.60
2023-03-04T16:20:18.072Z,28.67
2023-03-04T16:22:46.913Z,28.10
2023-03-04T16:25:15.733Z,28.08
2023-03-04T16:27:42.992Z,28.85
2023-03-04T16:30:20.570Z,30.92
2023-03-04T16:32:48.170Z,31.92
2023-03-04T16:35:16.496Z,31.63
2023-03-04T16:37:44.080Z,32.05
2023-03-04T16:40:14.308Z,34.35
2023-03-04T16:42:41.610Z,35.38
2023-03-04T16:45:17.524Z,31.40
2023-03-04T16:47:44.946Z,35.33
2023-03-04T16:50:16.628Z,37.20
2023-03-04T16:52:45.618Z,38.38
2023-03-04T16:55:17.691Z,38.22
2023-03-04T16:57:44.586Z,36.90
2023-03-04T17:00:12.263Z,36.25
2023-03-04T17:02:39.122Z,36.97
2023-03-04T17:05:09.091Z,37.92
2023-03-04T17:07:36.859Z,37.15
2023-03-04T17:10:03.762Z,38.08
2023-03-04T17:12:30.732Z,36.67
2023-03-04T17:14:57.867Z,38.50
2023-03-04T17:17:24.580Z,42.25
2023-03-04T17:19:51.324Z,41.85
2023-03-04T17:22:18.091Z,41.85
2023-03-04T17:24:44.781Z,43.45
2023-03-04T17:27:11.686Z,44.42
2023-03-04T17:29:38.437Z,45.08
2023-03-04T17:32:05.359Z,41.95
2023-03-04T17:34:32.812Z,40.30
2023-03-04T17:36:59.886Z,41.50
2023-03-04T17:39:26.580Z,45.22
2023-03-04T17:41:53.876Z,46.72
2023-03-04T17:44:20.611Z,47.47
2023-03-04T17:46:49.064Z,46.55
2023-03-04T17:49:16.233Z,46.08
2023-03-04T17:51:43.883Z,47.55
2023-03-04T17:54:11.633Z,52.58
2023-03-04T17:56:40.583Z,50.22
2023-03-04T17:59:10.810Z,50.67
2023-03-04T18:01:37.576Z,50.65
2023-03-04T18:04:04.686Z,46.97
2023-03-04T18:06:31.600Z,51.83
2023-03-04T18:08:58.324Z,52.20
2023-03-04T18:11:26.822Z,53.72
2023-03-04T18:13:56.462Z,50.30
2023-03-04T18:16:26.561Z,48.58
2023-03-04T18:18:57.674Z,49.40
2023-03-04T18:21:25.562Z,49.05
2023-03-04T18:23:52.538Z,49.05
2023-03-04T18:26:22.634Z,50.88
2023-03-04T18:28:50.427Z,49.70
2023-03-04T18:31:21.978Z,51.20
2023-03-04T18:33:49.337Z,53.13
2023-03-04T18:36:16.204Z,49.13
2023-03-04T18:38:42.882Z,47.88
2023-03-04T18:41:14.635Z,51.00
2023-03-04T18:43:41.716Z,51.00
2023-03-04T18:46:29.698Z,49.65
2023-03-04T18:49:01.213Z,48.97
2023-03-04T18:51:27.913Z,49.58
2023-03-04T18:53:54.842Z,51.08
2023-03-04T18:56:28.017Z,48.80
2023-03-04T18:58:54.951Z,52.53
2023-03-04T19:01:25.075Z,46.17
2023-03-04T19:03:52.821Z,47.03
2023-03-04T19:06:19.787Z,47.65
2023-03-04T19:08:46.650Z,46.75
2023-03-04T19:11:13.404Z,49.70
2023-03-04T19:13:40.158Z,50.38
2023-03-04T19:16:07.269Z,43.65
2023-03-04T19:18:33.936Z,48.35
2023-03-04T19:21:01.065Z,44.85
2023-03-04T19:23:29.709Z,46.75
2023-03-04T19:25:56.683Z,43.92
2023-03-04T19:28:24.254Z,47.95
2023-03-04T19:30:53.149Z,39.88
2023-03-04T19:33:20.440Z,44.97
2023-03-04T19:35:47.829Z,46.80
2023-03-04T19:38:14.607Z,48.97
2023-03-04T19:40:42.295Z,44.75
2023-03-04T19:43:09.520Z,46.53
2023-03-04T19:45:36.302Z,42.92
2023-03-04T19:48:03.217Z,46.15
2023-03-04T19:50:31.131Z,43.55
2023-03-04T19:52:57.840Z,42.40
2023-03-04T19:55:24.769Z,42.42
2023-03-04T19:57:51.726Z,43.17
2023-03-04T20:00:18.867Z,45.03
2023-03-04T20:02:47.842Z,44.38
2023-03-04T20:05:14.729Z,40.60
2023-03-04T20:07:41.486Z,41.45
2023-03-04T20:10:09.039Z,40.55
2023-03-04T20:12:36.558Z,41.40
2023-03-04T20:15:06.308Z,43.65
2023-03-04T20:17:33.004Z,44.88
2023-03-04T20:19:59.711Z,45.40
2023-03-04T20:22:26.426Z,44.97
2023-03-04T20:28:41.703Z,43.70
2023-03-04T20:31:12.108Z,48.95
2023-03-04T20:33:39.083Z,46.40
2023-03-04T20:36:05.872Z,48.22
2023-03-04T20:38:32.668Z,44.70
2023-03-04T20:40:59.523Z,46.13
2023-03-04T20:43:28.550Z,44.70
2023-03-04T20:45:55.763Z,43.78
2023-03-04T20:48:22.491Z,51.47
2023-03-04T20:50:49.252Z,44.55
2023-03-04T20:53:16.077Z,44.10
2023-03-04T20:55:42.826Z,44.67
2023-03-04T20:58:09.597Z,42.45
2023-03-04T21:00:38.298Z,36.88
2023-03-04T21:03:05.028Z,38.25
2023-03-04T21:05:31.742Z,42.70
2023-03-04T21:07:58.897Z,38.67
2023-03-04T21:10:25.611Z,37.38
2023-03-04T21:12:52.404Z,40.58
2023-03-04T21:15:19.250Z,41.83
2023-03-04T21:17:45.921Z,38.42
2023-03-04T21:20:15.132Z,38.25
2023-03-04T21:22:41.868Z,40.92
2023-03-04T21:25:08.931Z,42.20
2023-03-04T21:27:38.766Z,40.95
2023-03-04T21:30:06.473Z,40.63
2023-03-04T21:32:33.718Z,39.47
2023-03-04T21:35:00.418Z,43.28
2023-03-04T21:37:27.264Z,41.13
2023-03-04T21:39:55.429Z,36.40
2023-03-04T21:42:22.302Z,40.30
2023-03-04T21:44:51.094Z,35.05
2023-03-04T21:47:19.541Z,41.15
2023-03-04T21:49:46.704Z,39.20
2023-03-04T21:52:13.525Z,39.17
2023-03-04T21:54:40.240Z,43.20
2023-03-04T21:57:07.027Z,47.17
2023-03-04T21:59:33.787Z,48.08
2023-03-04T22:02:01.267Z,46.25
2023-03-04T22:04:28.002Z,44.78
2023-03-04T22:06:54.978Z,47.72
2023-03-04T22:09:21.684Z,41.28
2023-03-04T22:11:48.436Z,42.63
2023-03-04T22:14:15.213Z,45.42
2023-03-04T22:16:54.457Z,45.17
2023-03-04T22:19:23.699Z,42.97
2023-03-04T22:21:51.941Z,55.00
2023-03-04T22:24:18.844Z,54.60
2023-03-04T22:26:45.725Z,47.35
2023-03-04T22:29:12.565Z,49.33
2023-03-04T22:31:39.489Z,45.28
2023-03-04T22:34:12.042Z,45.25
2023-03-04T22:36:42.775Z,44.67
2023-03-04T22:39:11.812Z,55.78
2023-03-04T22:41:38.611Z,53.33
2023-03-04T22:44:06.439Z,56.25
2023-03-04T22:46:35.833Z,58.75
2023-03-04T22:49:05.400Z,59.30
2023-03-04T22:51:32.277Z,58.60
2023-03-04T22:53:58.964Z,54.95
2023-03-04T22:56:25.663Z,51.20
2023-03-04T22:58:52.745Z,46.80
2023-03-04T23:01:20.108Z,46.58
2023-03-04T23:03:48.720Z,44.60
2023-03-04T23:06:21.274Z,42.08
2023-03-04T23:08:50.293Z,45.60
2023-03-04T23:11:22.941Z,51.40
2023-03-04T23:13:50.760Z,43.30
2023-03-04T23:16:18.717Z,43.25
2023-03-04T23:18:47.300Z,46.30
2023-03-04T23:21:18.492Z,53.05
2023-03-04T23:23:45.598Z,48.80
2023-03-04T23:26:27.404Z,46.30
2023-03-04T23:28:57.586Z,44.35
2023-03-04T23:31:25.781Z,48.88
2023-03-04T23:33:57.194Z,46.95
2023-03-04T23:36:35.995Z,44.85
2023-03-04T23:39:04.011Z,50.95
2023-03-04T23:41:31.627Z,48.60
2023-03-04T23:43:59.372Z,45.30
2023-03-04T23:46:26.925Z,48.10
2023-03-04T23:48:54.477Z,45.90
2023-03-04T23:51:24.027Z,44.72
2023-03-04T23:53:50.973Z,44.63
2023-03-04T23:56:24.148Z,43.03
2023-03-04T23:58:50.912Z,47.63
